| Date | Time | Temp. (oF) | Dew Point (oF) | Rel. Hum. (%) | Press. (in.) | Wind Dir. (deg.) | Wind Speed (mph) | Hourly Rainfall (i n.) |
|
|---|---|---|---|---|---|---|---|---|---|
| 1 | 08/05 | 24:00 | 78 | 59 | 53 | 30.07 | 140 | 4 | 0.00 |
| 2 | 08/04 | 23:00 | 75 | 58 | 57 | 30.13 | 130 | 2 | 0.00 |
| 3 | 08/04 | 22:00 | 76 | 57 | 53 | 30.11 | 130 | 1 | 0.00 |
| 4 | 08/04 | 21:00 | 78 | 54 | 45 | 30.05 | 140 | 1 | 0.00 |
| 5 | 08/04 | 20:00 | 80 | 54 | 42 | 30.07 | 160 | 2 | 0.00 |
| 6 | 08/04 | 19:00 | 83 | 57 | 42 | 30.09 | 130 | 9 | 0.00 |
| 7 | 08/04 | 18:00 | 84 | 56 | 39 | 30.10 | 150 | 4 | 0.00 |
| 8 | 08/04 | 17:00 | 86 | 55 | 36 | 30.09 | 140 | 4 | 0.00 |
| 9 | 08/04 | 16:00 | 86 | 55 | 36 | 30.11 | 320 | 7 | 0.00 |
| 10 | 08/04 | 15:00 | 88 | 55 | 34 | 30.12 | 10 | 9 | 0.00 |
| 11 | 08/04 | 14:00 | 87 | 54 | 34 | 30.14 | 330 | 4 | 0.00 |
| 12 | 08/04 | 13:00 | 86 | 54 | 35 | 30.16 | 270 | 0 | 0.00 |
| 13 | 08/04 | 12:00 | 83 | 53 | 37 | 30.19 | 130 | 2 | 0.00 |
| 14 | 08/04 | 11:00 | 77 | 57 | 51 | 30.21 | 110 | 0 | 0.00 |
| 15 | 08/04 | 10:00 | 70 | 58 | 67 | 30.22 | 30 | 0 | 0.00 |
| 16 | 08/04 | 09:00 | 67 | 58 | 73 | 30.23 | 350 | 0 | 0.00 |
| 17 | 08/04 | 08:00 | 63 | 55 | 76 | 30.24 | 350 | 0 | 0.00 |
| 18 | 08/04 | 07:00 | 61 | 54 | 80 | 30.21 | 350 | 0 | 0.00 |
| 19 | 08/04 | 06:00 | 61 | 54 | 79 | 30.26 | 350 | 0 | 0.00 |
| 20 | 08/04 | 05:00 | 62 | 54 | 77 | 30.24 | 350 | 0 | 0.00 |
| 21 | 08/04 | 04:00 | 63 | 54 | 75 | 30.22 | 350 | 0 | 0.00 |
| 22 | 08/04 | 03:00 | 64 | 55 | 75 | 30.22 | 350 | 0 | 0.00 |
| 23 | 08/04 | 02:00 | 65 | 56 | 73 | 30.23 | 350 | 1 | 0.00 |
| 24 | 08/04 | 01:00 | 66 | 56 | 71 | 30.24 | 350 | 0 | 0.00 |